createdAt,value
2023-02-11T00:02:08.257Z,101082.88
2023-02-11T00:04:35.173Z,101067.72
2023-02-11T00:07:02.218Z,101081.38
2023-02-11T00:09:31.764Z,101092.47
2023-02-11T00:11:58.805Z,101087.94
2023-02-11T00:14:25.898Z,101090.81
2023-02-11T00:16:52.775Z,101088.28
2023-02-11T00:19:21.129Z,101086.59
2023-02-11T00:21:47.985Z,101080.53
2023-02-11T00:24:14.810Z,101081.56
2023-02-11T00:29:09.907Z,101074.50
2023-02-11T00:31:37.253Z,101081.09
2023-02-11T00:34:05.545Z,101065.09
2023-02-11T00:36:34.073Z,101053.66
2023-02-11T00:39:01.094Z,101053.66
2023-02-11T00:41:28.501Z,101047.78
2023-02-11T00:43:55.457Z,101051.50
2023-02-11T00:46:22.852Z,101058.56
2023-02-11T00:48:51.837Z,101057.69
2023-02-11T00:51:21.467Z,101054.38
2023-02-11T00:53:49.756Z,101061.59
2023-02-11T00:56:16.874Z,101061.75
2023-02-11T00:58:44.000Z,101047.66
2023-02-11T01:01:10.982Z,101050.50
2023-02-11T01:03:37.901Z,101046.97
2023-02-11T01:06:05.675Z,101046.16
2023-02-11T01:08:32.586Z,101050.69
2023-02-11T01:11:04.282Z,101053.69
2023-02-11T01:13:34.029Z,101054.56
2023-02-11T01:16:01.268Z,101045.63
2023-02-11T01:18:28.501Z,101037.94
2023-02-11T01:20:56.088Z,101038.75
2023-02-11T01:23:23.813Z,101038.75
2023-02-11T01:25:51.802Z,101037.94
2023-02-11T01:28:21.858Z,101031.69
2023-02-11T01:30:49.264Z,101034.56
2023-02-11T01:33:16.847Z,101028.31
2023-02-11T01:35:44.656Z,101035.75
2023-02-11T01:38:16.450Z,101034.88
2023-02-11T01:40:47.687Z,101029.50
2023-02-11T01:43:14.643Z,101017.38
2023-02-11T01:46:14.166Z,101018.41
2023-02-11T01:48:44.115Z,101020.25
2023-02-11T01:51:14.237Z,101028.50
2023-02-11T01:54:01.174Z,101022.28
2023-02-11T01:56:49.409Z,101009.00
2023-02-11T01:59:20.629Z,101004.63
2023-02-11T02:01:57.045Z,100993.19
2023-02-11T02:04:31.428Z,100996.75
2023-02-11T02:07:03.750Z,100991.34
2023-02-11T02:09:36.881Z,100994.91
2023-02-11T02:12:04.488Z,100991.53
2023-02-11T02:14:31.634Z,100989.00
2023-02-11T02:16:59.983Z,101000.78
2023-02-11T02:19:58.762Z,100991.88
2023-02-11T02:22:52.935Z,100995.56
2023-02-11T02:25:48.161Z,100994.75
2023-02-11T02:28:40.962Z,100988.84
2023-02-11T02:31:27.261Z,100991.53
2023-02-11T02:34:00.446Z,100989.88
2023-02-11T02:36:34.709Z,100988.03
2023-02-11T02:39:06.038Z,100975.56
2023-02-11T02:41:35.704Z,100976.59
2023-02-11T02:44:02.902Z,100971.38
2023-02-11T02:46:32.063Z,100976.75
2023-02-11T02:49:00.928Z,100966.00
2023-02-11T02:51:45.633Z,100968.03
2023-02-11T02:54:45.503Z,100958.09
2023-02-11T02:57:28.797Z,100951.91
2023-02-11T03:00:08.917Z,100957.28
2023-02-11T03:02:46.251Z,100955.59
2023-02-11T03:05:19.798Z,100961.97
2023-02-11T03:07:55.484Z,100963.84
2023-02-11T03:10:26.852Z,100955.09
2023-02-11T03:12:56.464Z,100955.97
2023-02-11T03:15:26.018Z,100950.56
2023-02-11T03:17:56.668Z,100945.19
2023-02-11T03:20:26.693Z,100948.88
2023-02-11T03:22:58.143Z,100948.06
2023-02-11T03:25:28.466Z,100941.00
2023-02-11T03:28:03.268Z,100931.41
2023-02-11T03:30:34.911Z,100938.66
2023-02-11T03:33:07.340Z,100935.13
2023-02-11T03:35:41.605Z,100936.13
2023-02-11T03:38:14.227Z,100929.09
2023-02-11T03:40:43.642Z,100933.63
2023-02-11T03:43:17.441Z,100929.25
2023-02-11T03:45:46.087Z,100943.72
2023-02-11T03:48:16.268Z,100932.13
2023-02-11T03:50:46.701Z,100930.28
2023-02-11T03:53:14.892Z,100929.59
2023-02-11T03:55:43.970Z,100929.59
2023-02-11T03:58:11.163Z,100925.06
2023-02-11T04:00:41.104Z,100936.00
2023-02-11T04:03:09.093Z,100942.19
2023-02-11T04:05:35.974Z,100924.22
2023-02-11T04:08:04.781Z,100927.06
2023-02-11T04:10:31.619Z,100917.34
2023-02-11T04:12:58.579Z,100927.06
2023-02-11T04:15:25.717Z,100933.47
2023-02-11T04:17:52.608Z,100938.69
2023-02-11T04:20:19.769Z,100928.75
2023-02-11T04:22:46.633Z,100924.38
2023-02-11T04:25:14.968Z,100935.31
2023-02-11T04:27:41.906Z,100954.28
2023-02-11T04:30:09.754Z,100965.03
2023-02-11T04:32:36.736Z,100969.59
2023-02-11T04:35:04.144Z,100960.69
2023-02-11T04:37:31.090Z,100963.53
2023-02-11T04:39:57.971Z,100956.50
2023-02-11T04:42:26.276Z,100951.97
2023-02-11T04:44:53.125Z,100954.66
2023-02-11T04:47:20.069Z,100953.81
2023-02-11T04:49:46.932Z,100958.34
2023-02-11T04:52:13.812Z,100955.66
2023-02-11T04:54:40.942Z,100951.28
2023-02-11T04:57:07.891Z,100946.75
2023-02-11T04:59:36.087Z,100953.97
2023-02-11T05:02:04.152Z,100949.44
2023-02-11T05:04:31.074Z,100933.47
2023-02-11T05:06:58.772Z,100947.78
2023-02-11T05:09:25.717Z,100952.47
2023-02-11T05:11:53.681Z,100948.75
2023-02-11T05:14:20.774Z,100948.94
2023-02-11T05:16:49.063Z,100946.25
2023-02-11T05:19:15.947Z,100939.19
2023-02-11T05:21:56.647Z,100941.56
2023-02-11T05:24:27.368Z,100950.81
2023-02-11T05:26:54.309Z,100939.19
2023-02-11T05:29:21.201Z,100932.16
2023-02-11T05:31:49.530Z,100926.59
2023-02-11T05:34:16.393Z,100922.41
2023-02-11T05:36:43.295Z,100925.91
2023-02-11T05:39:10.106Z,100924.25
2023-02-11T05:41:38.093Z,100926.28
2023-02-11T05:44:04.995Z,100923.59
2023-02-11T05:46:31.968Z,100922.75
2023-02-11T05:49:00.252Z,100928.28
2023-02-11T05:51:27.164Z,100928.28
2023-02-11T05:53:54.181Z,100920.06
2023-02-11T05:56:21.111Z,100923.78
2023-02-11T05:58:47.971Z,100925.59
2023-02-11T06:01:14.926Z,100915.72
2023-02-11T06:03:41.900Z,100913.34
2023-02-11T06:06:12.219Z,100913.19
2023-02-11T06:08:39.669Z,100916.69
2023-02-11T06:11:06.580Z,100922.44
2023-02-11T06:13:33.427Z,100913.34
2023-02-11T06:16:01.909Z,100907.97
2023-02-11T06:18:29.514Z,100913.34
2023-02-11T06:20:56.413Z,100923.25
2023-02-11T06:23:24.659Z,100917.06
2023-02-11T06:25:51.951Z,100911.69
2023-02-11T06:28:19.313Z,100907.97
2023-02-11T06:30:46.287Z,100917.88
2023-02-11T06:33:13.190Z,100914.38
2023-02-11T06:35:40.337Z,100924.28
2023-02-11T06:38:07.252Z,100922.75
2023-02-11T06:40:35.563Z,100922.06
2023-02-11T06:43:02.398Z,100916.34
2023-02-11T06:45:29.359Z,100922.41
2023-02-11T06:47:56.257Z,100922.72
2023-02-11T06:50:23.228Z,100920.38
2023-02-11T06:52:50.113Z,100918.84
2023-02-11T06:55:17.248Z,100924.38
2023-02-11T06:57:45.477Z,100926.00
2023-02-11T07:00:13.894Z,100940.97
2023-02-11T07:02:40.776Z,100949.81
2023-02-11T07:05:08.647Z,100946.97
2023-02-11T07:07:35.749Z,100938.50
2023-02-11T07:10:05.913Z,100947.19
2023-02-11T07:12:32.980Z,100952.84
2023-02-11T07:15:01.563Z,100950.59
2023-02-11T07:17:28.492Z,100948.31
2023-02-11T07:19:55.414Z,100952.47
2023-02-11T07:22:22.333Z,100952.09
2023-02-11T07:24:49.660Z,100956.38
2023-02-11T07:27:16.508Z,100951.59
2023-02-11T07:29:43.558Z,100953.38
2023-02-11T07:32:11.861Z,100954.97
2023-02-11T07:34:38.945Z,100952.22
2023-02-11T07:37:06.147Z,100946.94
2023-02-11T07:39:33.173Z,100948.91
2023-02-11T07:42:00.190Z,100956.28
2023-02-11T07:44:27.524Z,100954.53
2023-02-11T07:46:54.473Z,100950.25
2023-02-11T07:49:22.860Z,100952.41
2023-02-11T07:51:51.427Z,100967.84
2023-02-11T07:54:18.393Z,100972.53
2023-02-11T07:56:45.314Z,100966.56
2023-02-11T07:59:12.527Z,100967.66
2023-02-11T08:01:39.404Z,100966.91
2023-02-11T08:04:06.255Z,100962.81
2023-02-11T08:06:35.822Z,100968.53
2023-02-11T08:09:07.379Z,100964.41
2023-02-11T08:11:34.332Z,100965.53
2023-02-11T08:14:01.289Z,100967.88
2023-02-11T08:16:30.550Z,100978.13
2023-02-11T08:18:59.496Z,100984.16
2023-02-11T08:21:27.101Z,100985.44
2023-02-11T08:23:55.722Z,100980.53
2023-02-11T08:26:24.419Z,100983.50
2023-02-11T08:28:52.977Z,100988.53
2023-02-11T08:31:21.719Z,100984.59
2023-02-11T08:33:49.282Z,100996.72
2023-02-11T08:36:19.567Z,100991.94
2023-02-11T08:38:46.522Z,101000.34
2023-02-11T08:41:15.659Z,101004.50
2023-02-11T08:43:43.902Z,101003.31
2023-02-11T08:46:13.269Z,101004.97
2023-02-11T08:48:40.430Z,101005.41
2023-02-11T08:51:08.565Z,101005.22
2023-02-11T08:53:35.845Z,101002.34
2023-02-11T08:56:03.223Z,101011.09
2023-02-11T08:58:31.501Z,101015.28
2023-02-11T09:00:58.481Z,101011.38
2023-02-11T09:03:25.564Z,101005.13
2023-02-11T09:05:56.978Z,100997.66
2023-02-11T09:08:23.852Z,101005.59
2023-02-11T09:10:50.969Z,101006.03
2023-02-11T09:13:17.972Z,101013.94
2023-02-11T09:15:46.926Z,101025.44
2023-02-11T09:18:15.029Z,101011.91
2023-02-11T09:20:42.290Z,101009.03
2023-02-11T09:23:10.533Z,101009.69
2023-02-11T09:25:39.296Z,101011.34
2023-02-11T09:28:06.175Z,101007.63
2023-02-11T09:30:33.452Z,100998.50
2023-02-11T09:33:01.750Z,100997.47
2023-02-11T09:35:28.739Z,101001.66
2023-02-11T09:37:56.162Z,100998.56
2023-02-11T09:40:23.474Z,101003.78
2023-02-11T09:42:53.774Z,101003.56
2023-02-11T09:45:24.256Z,101007.13
2023-02-11T09:47:55.587Z,101015.22
2023-02-11T09:50:27.886Z,101009.63
2023-02-11T09:52:59.269Z,101015.22
2023-02-11T09:55:27.560Z,101003.38
2023-02-11T09:57:55.659Z,101003.56
2023-02-11T10:00:26.096Z,101002.75
2023-02-11T10:03:08.795Z,101003.56
2023-02-11T10:05:56.410Z,101002.56
2023-02-11T10:08:35.912Z,101015.88
2023-02-11T10:11:08.688Z,101013.19
2023-02-11T10:13:48.955Z,101012.78
2023-02-11T10:16:30.186Z,101016.13
2023-02-11T10:19:11.331Z,101021.34
2023-02-11T10:21:50.593Z,101015.75
2023-02-11T10:24:18.414Z,101019.94
2023-02-11T10:26:46.152Z,101018.06
2023-02-11T10:29:31.203Z,101019.75
2023-02-11T10:32:00.400Z,101004.34
2023-02-11T10:34:27.381Z,101014.78
2023-02-11T10:36:55.647Z,101004.16
2023-02-11T10:39:25.678Z,101001.09
2023-02-11T10:41:57.024Z,101006.31
2023-02-11T10:44:26.187Z,101002.38
2023-02-11T10:46:55.663Z,100998.38
2023-02-11T10:49:35.431Z,101008.16
2023-02-11T10:52:20.249Z,101007.97
2023-02-11T10:54:58.573Z,100999.84
2023-02-11T10:57:30.082Z,100997.97
2023-02-11T11:00:04.482Z,100996.78
2023-02-11T11:02:35.305Z,100991.38
2023-02-11T11:05:06.120Z,100992.19
2023-02-11T11:07:35.192Z,100977.84
2023-02-11T11:10:04.228Z,100983.03
2023-02-11T11:12:35.210Z,100977.00
2023-02-11T11:15:16.643Z,100964.09
2023-02-11T11:17:43.420Z,100972.03
2023-02-11T11:20:22.014Z,100984.06
2023-02-11T11:22:52.897Z,100972.44
2023-02-11T11:25:25.782Z,100976.81
2023-02-11T11:27:55.892Z,100972.22
2023-02-11T11:30:26.453Z,100964.09
2023-02-11T11:32:53.732Z,100967.84
2023-02-11T11:35:27.374Z,100954.97
2023-02-11T11:38:01.365Z,100954.97
2023-02-11T11:40:30.814Z,100953.09
2023-02-11T11:43:15.263Z,100950.56
2023-02-11T11:45:54.578Z,100949.56
2023-02-11T11:48:26.487Z,100936.06
2023-02-11T11:50:56.316Z,100925.88
2023-02-11T11:53:31.430Z,100928.56
2023-02-11T11:56:02.586Z,100923.16
2023-02-11T11:58:30.756Z,100921.50
2023-02-11T12:01:05.321Z,100923.16
2023-02-11T12:03:58.040Z,100920.47
2023-02-11T12:06:35.650Z,100915.03
2023-02-11T12:09:15.494Z,100908.81
2023-02-11T12:12:01.996Z,100910.69
2023-02-11T12:14:39.230Z,100912.34
2023-02-11T12:17:16.222Z,100905.47
2023-02-11T12:19:54.985Z,100908.34
2023-02-11T12:22:33.386Z,100895.50
2023-02-11T12:25:18.758Z,100902.56
2023-02-11T12:27:54.386Z,100904.41
2023-02-11T12:30:34.546Z,100903.59
2023-02-11T12:33:08.466Z,100895.50
2023-02-11T12:35:47.334Z,100889.03
2023-02-11T12:38:40.606Z,100888.41
2023-02-11T12:41:43.213Z,100881.31
2023-02-11T12:44:16.708Z,100875.91
2023-02-11T12:46:50.129Z,100878.63
2023-02-11T12:50:00.736Z,100880.28
2023-02-11T12:52:41.575Z,100869.88
2023-02-11T12:55:15.160Z,100866.13
2023-02-11T12:57:46.438Z,100859.06
2023-02-11T13:00:18.452Z,100860.91
2023-02-11T13:02:54.323Z,100854.66
2023-02-11T13:05:28.629Z,100858.22
2023-02-11T13:08:03.239Z,100849.91
2023-02-11T13:10:33.998Z,100854.94
2023-02-11T13:13:19.182Z,100855.94
2023-02-11T13:15:50.627Z,100848.88
2023-02-11T13:18:30.277Z,100847.41
2023-02-11T13:21:08.555Z,100849.25
2023-02-11T13:23:44.630Z,100839.50
2023-02-11T13:26:19.704Z,100837.63
2023-02-11T13:28:54.623Z,100846.56
2023-02-11T13:31:21.763Z,100843.03
2023-02-11T13:33:49.641Z,100838.88
2023-02-11T13:36:24.887Z,100844.28
2023-02-11T13:38:58.591Z,100847.97
2023-02-11T13:41:38.813Z,100842.81
2023-02-11T13:44:23.944Z,100844.66
2023-02-11T13:47:02.347Z,100847.56
2023-02-11T13:49:33.458Z,100846.75
2023-02-11T13:52:02.975Z,100839.63
2023-02-11T13:54:34.471Z,100848.97
2023-02-11T13:57:29.614Z,100843.56
2023-02-11T14:00:00.164Z,100846.47
2023-02-11T14:02:50.270Z,100836.69
2023-02-11T14:05:53.801Z,100834.38
2023-02-11T14:08:41.982Z,100823.75
2023-02-11T14:11:55.409Z,100825.84
2023-02-11T14:14:24.663Z,100818.13
2023-02-11T14:17:31.032Z,100816.88
2023-02-11T14:19:58.877Z,100820.44
2023-02-11T14:22:29.560Z,100808.78
2023-02-11T14:25:00.839Z,100814.19
2023-02-11T14:27:29.532Z,100814.19
2023-02-11T14:30:15.012Z,100810.84
2023-02-11T14:33:00.582Z,100812.72
2023-02-11T14:35:36.171Z,100821.00
2023-02-11T14:38:10.617Z,100818.97
2023-02-11T14:40:47.964Z,100820.00
2023-02-11T14:43:19.888Z,100812.72
2023-02-11T14:45:52.145Z,100816.88
2023-02-11T14:48:26.263Z,100811.28
2023-02-11T14:50:58.794Z,100809.63
2023-02-11T14:53:28.413Z,100807.13
2023-02-11T14:55:55.796Z,100817.91
2023-02-11T14:58:24.801Z,100811.66
2023-02-11T15:00:55.317Z,100815.41
2023-02-11T15:03:32.841Z,100817.91
2023-02-11T15:06:01.741Z,100816.25
2023-02-11T15:08:30.694Z,100808.34
2023-02-11T15:10:58.779Z,100811.03
2023-02-11T15:13:31.073Z,100804.19
2023-02-11T15:16:02.142Z,100810.63
2023-02-11T15:18:36.431Z,100805.41
2023-02-11T15:21:04.686Z,100817.03
2023-02-11T15:23:32.133Z,100819.94
2023-02-11T15:26:03.310Z,100820.78
2023-02-11T15:28:32.950Z,100819.94
2023-02-11T15:31:02.794Z,100818.44
2023-02-11T15:33:31.995Z,100813.03
2023-02-11T15:36:02.073Z,100816.16
2023-02-11T15:38:32.538Z,100809.06
2023-02-11T15:41:02.105Z,100803.66
2023-02-11T15:43:42.206Z,100805.56
2023-02-11T15:46:11.287Z,100805.75
2023-02-11T15:48:42.725Z,100804.69
2023-02-11T15:51:18.074Z,100811.16
2023-02-11T15:53:49.966Z,100810.66
2023-02-11T15:56:24.276Z,100815.25
2023-02-11T15:58:54.532Z,100826.03
2023-02-11T16:01:31.807Z,100818.97
2023-02-11T16:04:01.198Z,100826.44
2023-02-11T16:06:39.307Z,100832.88
2023-02-11T16:09:23.105Z,100848.03
2023-02-11T16:11:58.869Z,100843.00
2023-02-11T16:14:31.777Z,100852.16
2023-02-11T16:17:02.288Z,100860.44
2023-02-11T16:19:30.451Z,100860.44
2023-02-11T16:22:01.015Z,100865.84
2023-02-11T16:24:31.879Z,100873.16
2023-02-11T16:27:00.903Z,100878.13
2023-02-11T16:29:29.353Z,100868.63
2023-02-11T16:32:07.693Z,100871.97
2023-02-11T16:34:34.946Z,100880.28
2023-02-11T16:37:05.636Z,100891.50
2023-02-11T16:39:32.930Z,100891.16
2023-02-11T16:42:00.533Z,100897.22
2023-02-11T16:44:27.492Z,100905.13
2023-02-11T16:46:54.967Z,100905.34
2023-02-11T16:49:24.612Z,100900.94
2023-02-11T16:51:53.137Z,100902.16
2023-02-11T16:54:21.532Z,100899.63
2023-02-11T16:56:48.828Z,100911.84
2023-02-11T16:59:16.098Z,100905.44
2023-02-11T17:01:44.691Z,100906.25
2023-02-11T17:04:16.714Z,100909.13
2023-02-11T17:06:43.857Z,100914.53
2023-02-11T17:09:17.870Z,100914.72
2023-02-11T17:11:46.914Z,100925.75
2023-02-11T17:14:14.088Z,100930.13
2023-02-11T17:16:41.988Z,100930.31
2023-02-11T17:19:12.371Z,100940.28
2023-02-11T17:21:41.570Z,100934.88
2023-02-11T17:24:08.567Z,100932.81
2023-02-11T17:26:37.047Z,100931.16
2023-02-11T17:29:07.047Z,100931.34
2023-02-11T17:31:35.033Z,100938.59
2023-02-11T17:34:02.478Z,100943.38
2023-02-11T17:36:31.376Z,100953.34
2023-02-11T17:38:58.830Z,100948.97
2023-02-11T17:41:26.219Z,100957.25
2023-02-11T17:43:53.754Z,100949.34
2023-02-11T17:46:22.085Z,100953.91
2023-02-11T17:48:49.151Z,100945.16
2023-02-11T17:51:22.996Z,100948.91
2023-02-11T17:53:50.087Z,100954.09
2023-02-11T17:56:17.167Z,100954.31
2023-02-11T17:58:44.361Z,100948.06
2023-02-11T18:01:11.870Z,100958.00
2023-02-11T18:03:40.143Z,100956.34
2023-02-11T18:06:07.914Z,100961.75
2023-02-11T18:08:34.928Z,100955.50
2023-02-11T18:11:02.288Z,100954.69
2023-02-11T18:13:29.736Z,100953.00
2023-02-11T18:16:02.939Z,100960.09
2023-02-11T18:18:30.164Z,100954.88
2023-02-11T18:20:59.233Z,100959.41
2023-02-11T18:23:27.268Z,100957.56
2023-02-11T18:25:54.236Z,100953.00
2023-02-11T18:28:24.891Z,100951.97
2023-02-11T18:30:57.416Z,100953.00
2023-02-11T18:33:24.861Z,100945.91
2023-02-11T18:35:52.282Z,100943.88
2023-02-11T18:38:22.387Z,100951.13
2023-02-11T18:40:50.674Z,100955.72
2023-02-11T18:43:17.896Z,100951.31
2023-02-11T18:45:45.485Z,100955.06
2023-02-11T18:48:13.070Z,100954.00
2023-02-11T18:50:40.603Z,100964.63
2023-02-11T18:53:07.578Z,100958.41
2023-02-11T18:55:37.700Z,100958.41
2023-02-11T18:58:04.693Z,100971.91
2023-02-11T19:00:34.980Z,100967.53
2023-02-11T19:03:02.194Z,100962.13
2023-02-11T19:05:33.286Z,100950.31
2023-02-11T19:08:00.748Z,100953.38
2023-02-11T19:10:28.216Z,100956.72
2023-02-11T19:12:58.898Z,100950.31
2023-02-11T19:15:26.404Z,100955.91
2023-02-11T19:17:54.491Z,100955.06
2023-02-11T19:20:21.430Z,100955.06
2023-02-11T19:22:48.390Z,100962.13
2023-02-11T19:25:15.640Z,100947.78
2023-02-11T19:27:42.711Z,100946.09
2023-02-11T19:30:11.845Z,100945.09
2023-02-11T19:32:38.818Z,100947.63
2023-02-11T19:35:06.470Z,100950.69
2023-02-11T19:37:33.573Z,100945.91
2023-02-11T19:40:03.906Z,100949.66
2023-02-11T19:42:30.848Z,100944.44
2023-02-11T19:44:57.689Z,100955.25
2023-02-11T19:47:27.862Z,100947.97
2023-02-11T19:49:55.284Z,100948.81
2023-02-11T19:52:22.133Z,100950.69
2023-02-11T19:54:49.212Z,100951.31
2023-02-11T19:57:16.164Z,100954.00
2023-02-11T19:59:43.158Z,100956.09
2023-02-11T20:02:10.414Z,100947.97
2023-02-11T20:04:39.131Z,100944.44
2023-02-11T20:07:06.306Z,100951.72
2023-02-11T20:09:33.323Z,100950.03
2023-02-11T20:12:00.716Z,100944.63
2023-02-11T20:14:28.164Z,100946.31
2023-02-11T20:16:55.229Z,100955.44
2023-02-11T20:19:22.523Z,100952.72
2023-02-11T20:21:52.315Z,100959.81
2023-02-11T20:24:19.925Z,100954.41
2023-02-11T20:26:48.837Z,100957.13
2023-02-11T20:29:16.478Z,100960.81
2023-02-11T20:31:43.541Z,100956.47
2023-02-11T20:34:12.064Z,100948.53
2023-02-11T20:36:40.398Z,100945.84
2023-02-11T20:39:08.821Z,100947.06
2023-02-11T20:41:36.794Z,100954.53
2023-02-11T20:44:05.419Z,100963.19
2023-02-11T20:46:34.592Z,100957.97
2023-02-11T20:49:02.302Z,100956.94
2023-02-11T20:51:31.159Z,100951.53
2023-02-11T20:53:58.698Z,100944.47
2023-02-11T20:56:28.823Z,100947.34
2023-02-11T20:58:59.734Z,100937.78
2023-02-11T21:01:29.118Z,100943.19
2023-02-11T21:03:57.812Z,100941.69
2023-02-11T21:06:26.860Z,100936.84
2023-02-11T21:08:53.818Z,100934.56
2023-02-11T21:11:20.792Z,100932.22
2023-02-11T21:13:49.574Z,100932.59
2023-02-11T21:16:20.453Z,100941.06
2023-02-11T21:18:48.180Z,100938.53
2023-02-11T21:21:15.166Z,100939.94
2023-02-11T21:23:42.042Z,100935.72
2023-02-11T21:26:09.306Z,100935.28
2023-02-11T21:28:40.517Z,100933.81
2023-02-11T21:31:09.957Z,100937.06
2023-02-11T21:33:36.932Z,100936.41
2023-02-11T21:36:07.789Z,100933.91
2023-02-11T21:38:34.945Z,100932.59
2023-02-11T21:41:06.002Z,100940.03
2023-02-11T21:43:33.707Z,100936.88
2023-02-11T21:46:01.108Z,100937.25
2023-02-11T21:48:29.422Z,100950.28
2023-02-11T21:50:56.298Z,100952.34
2023-02-11T21:53:23.210Z,100944.41
2023-02-11T21:55:51.329Z,100942.09
2023-02-11T21:58:18.236Z,100950.53
2023-02-11T22:00:45.138Z,100955.47
2023-02-11T22:03:12.621Z,100953.16
2023-02-11T22:05:41.411Z,100958.25
2023-02-11T22:08:08.361Z,100961.13
2023-02-11T22:10:35.167Z,100955.06
2023-02-11T22:13:02.026Z,100963.56
2023-02-11T22:15:28.910Z,100968.94
2023-02-11T22:17:55.801Z,100965.72
2023-02-11T22:20:23.072Z,100973.34
2023-02-11T22:22:51.325Z,100966.47
2023-02-11T22:25:18.456Z,100956.72
2023-02-11T22:27:45.278Z,100954.56
2023-02-11T22:30:13.192Z,100967.38
2023-02-11T22:32:40.016Z,100966.72
2023-02-11T22:35:07.105Z,100964.22
2023-02-11T22:37:33.941Z,100970.63
2023-02-11T22:40:02.312Z,100969.94
2023-02-11T22:42:29.142Z,100967.81
2023-02-11T22:44:56.020Z,100970.69
2023-02-11T22:47:22.852Z,100961.28
2023-02-11T22:49:49.793Z,100955.91
2023-02-11T22:52:16.777Z,100959.97
2023-02-11T22:54:43.740Z,100964.91
2023-02-11T22:57:11.965Z,100963.19
2023-02-11T22:59:38.842Z,100968.59
2023-02-11T23:02:05.847Z,100958.19
2023-02-11T23:04:32.742Z,100961.06
2023-02-11T23:06:59.563Z,100951.50
2023-02-11T23:09:26.457Z,100955.34
2023-02-11T23:11:54.454Z,100959.09
2023-02-11T23:14:22.737Z,100973.75
2023-02-11T23:16:51.203Z,100968.38
2023-02-11T23:19:18.175Z,100957.94
2023-02-11T23:21:45.076Z,100966.19
2023-02-11T23:24:14.053Z,100965.38
2023-02-11T23:26:42.488Z,100968.88
2023-02-11T23:29:10.389Z,100967.41
2023-02-11T23:31:43.366Z,100965.38
2023-02-11T23:34:10.420Z,100966.59
2023-02-11T23:36:37.590Z,100957.00
2023-02-11T23:39:04.994Z,100966.94
2023-02-11T23:41:31.890Z,100961.72
2023-02-11T23:43:58.795Z,100966.25
2023-02-11T23:46:26.950Z,100961.72
2023-02-11T23:48:55.811Z,100971.00
2023-02-11T23:51:24.131Z,100967.44
2023-02-11T23:53:51.633Z,100966.78
2023-02-11T23:56:21.108Z,100961.38
2023-02-11T23:58:48.684Z,100958.88
